createdAt,value
2023-04-09T00:00:17.537Z,1019.33
2023-04-09T00:01:18.930Z,1019.26
2023-04-09T00:02:20.428Z,1019.33
2023-04-09T00:03:21.898Z,1019.23
2023-04-09T00:04:24.329Z,1019.32
2023-04-09T00:05:26.599Z,1019.33
2023-04-09T00:06:27.985Z,1019.30
2023-04-09T00:07:29.390Z,1019.30
2023-04-09T00:08:31.617Z,1019.30
2023-04-09T00:09:33.005Z,1019.38
2023-04-09T00:10:35.264Z,1019.33
2023-04-09T00:11:36.673Z,1019.35
2023-04-09T00:12:38.857Z,1019.37
2023-04-09T00:13:41.103Z,1019.33
2023-04-09T00:14:42.501Z,1019.34
2023-04-09T00:15:44.705Z,1019.39
2023-04-09T00:16:46.957Z,1019.42
2023-04-09T00:17:48.394Z,1019.39
2023-04-09T00:18:50.974Z,1019.47
2023-04-09T00:19:53.423Z,1019.55
2023-04-09T00:20:54.814Z,1019.53
2023-04-09T00:21:56.275Z,1019.45
2023-04-09T00:22:57.661Z,1019.52
2023-04-09T00:23:59.067Z,1019.48
2023-04-09T00:25:01.365Z,1019.43
2023-04-09T00:26:02.770Z,1019.54
2023-04-09T00:27:05.029Z,1019.54
2023-04-09T00:28:07.257Z,1019.58
2023-04-09T00:29:09.451Z,1019.52
2023-04-09T00:30:10.865Z,1019.49
2023-04-09T00:31:12.268Z,1019.47
2023-04-09T00:32:13.723Z,1019.46
2023-04-09T00:33:15.116Z,1019.45
2023-04-09T00:34:17.371Z,1019.45
2023-04-09T00:35:18.774Z,1019.45
2023-04-09T00:36:20.179Z,1019.40
2023-04-09T00:37:22.376Z,1019.39
2023-04-09T00:38:24.622Z,1019.44
2023-04-09T00:39:26.903Z,1019.55
2023-04-09T00:40:28.372Z,1019.52
2023-04-09T00:41:29.769Z,1019.58
2023-04-09T00:42:32.016Z,1019.60
2023-04-09T00:43:33.411Z,1019.61
2023-04-09T00:44:34.809Z,1019.60
2023-04-09T00:45:37.141Z,1019.58
2023-04-09T00:46:38.558Z,1019.63
2023-04-09T00:47:40.846Z,1019.55
2023-04-09T00:48:43.102Z,1019.61
2023-04-09T00:49:45.302Z,1019.65
2023-04-09T00:50:46.723Z,1019.68
2023-04-09T00:51:48.144Z,1019.58
2023-04-09T00:52:49.536Z,1019.61
2023-04-09T00:53:50.984Z,1019.66
2023-04-09T00:54:53.255Z,1019.63
2023-04-09T00:55:55.453Z,1019.62
2023-04-09T00:56:57.819Z,1019.66
2023-04-09T00:57:59.223Z,1019.65
2023-04-09T00:59:01.425Z,1019.67
2023-04-09T01:00:03.692Z,1019.66
2023-04-09T01:01:05.922Z,1019.65
2023-04-09T01:02:08.175Z,1019.72
2023-04-09T01:03:09.677Z,1019.70
2023-04-09T01:04:11.181Z,1019.77
2023-04-09T01:05:12.583Z,1019.72
2023-04-09T01:06:14.976Z,1019.70
2023-04-09T01:07:16.370Z,1019.65
2023-04-09T01:08:18.618Z,1019.62
2023-04-09T01:09:20.027Z,1019.70
2023-04-09T01:10:22.224Z,1019.66
2023-04-09T01:11:24.427Z,1019.68
2023-04-09T01:12:26.674Z,1019.62
2023-04-09T01:13:28.078Z,1019.56
2023-04-09T01:14:30.273Z,1019.68
2023-04-09T01:15:31.684Z,1019.69
2023-04-09T01:16:33.980Z,1019.68
2023-04-09T01:17:35.431Z,1019.76
2023-04-09T01:18:37.691Z,1019.68
2023-04-09T01:19:39.183Z,1019.67
2023-04-09T01:20:41.525Z,1019.77
2023-04-09T01:21:43.739Z,1019.77
2023-04-09T01:22:45.937Z,1019.75
2023-04-09T01:23:48.129Z,1019.80
2023-04-09T01:24:50.330Z,1019.83
2023-04-09T01:25:52.639Z,1019.83
2023-04-09T01:26:54.076Z,1019.83
2023-04-09T01:27:56.385Z,1019.89
2023-04-09T01:28:58.596Z,1019.88
2023-04-09T01:30:00.836Z,1019.82
2023-04-09T01:31:03.118Z,1019.80
2023-04-09T01:32:05.307Z,1019.91
2023-04-09T01:33:07.567Z,1019.90
2023-04-09T01:34:09.879Z,1019.81
2023-04-09T01:35:12.137Z,1019.92
2023-04-09T01:36:14.374Z,1019.92
2023-04-09T01:37:16.595Z,1019.90
2023-04-09T01:38:18.921Z,1019.92
2023-04-09T01:39:21.151Z,1019.86
2023-04-09T01:40:22.556Z,1019.81
2023-04-09T01:41:24.811Z,1019.99
2023-04-09T01:42:26.271Z,1019.92
2023-04-09T01:43:27.666Z,1019.89
2023-04-09T01:44:29.866Z,1019.85
2023-04-09T01:45:32.110Z,1019.92
2023-04-09T01:46:34.394Z,1019.90
2023-04-09T01:47:36.679Z,1019.95
2023-04-09T01:48:38.947Z,1019.87
2023-04-09T01:49:40.336Z,1019.90
2023-04-09T01:50:41.743Z,1019.94
2023-04-09T01:51:43.136Z,1019.95
2023-04-09T01:52:45.410Z,1019.92
2023-04-09T01:53:47.666Z,1019.89
2023-04-09T01:54:49.916Z,1019.85
2023-04-09T01:55:52.171Z,1019.85
2023-04-09T01:56:53.628Z,1019.90
2023-04-09T01:57:55.885Z,1019.88
2023-04-09T01:58:57.355Z,1019.92
2023-04-09T01:59:58.750Z,1019.89
2023-04-09T02:01:01.056Z,1019.90
2023-04-09T02:02:03.302Z,1019.92
2023-04-09T02:03:04.858Z,1019.81
2023-04-09T02:04:06.430Z,1019.87
2023-04-09T02:05:08.614Z,1019.88
2023-04-09T02:06:10.869Z,1019.88
2023-04-09T02:07:12.286Z,1019.91
2023-04-09T02:08:14.586Z,1019.89
2023-04-09T02:09:16.839Z,1019.90
2023-04-09T02:10:19.160Z,1019.88
2023-04-09T02:11:20.555Z,1019.85
2023-04-09T02:12:21.953Z,1019.86
2023-04-09T02:13:24.197Z,1019.85
2023-04-09T02:14:26.399Z,1019.73
2023-04-09T02:15:27.874Z,1019.91
2023-04-09T02:16:30.116Z,1019.85
2023-04-09T02:17:32.405Z,1019.84
2023-04-09T02:18:34.622Z,1019.82
2023-04-09T02:19:36.027Z,1019.84
2023-04-09T02:20:38.221Z,1019.88
2023-04-09T02:21:40.463Z,1019.82
2023-04-09T02:22:42.729Z,1019.90
2023-04-09T02:23:44.115Z,1019.88
2023-04-09T02:24:45.588Z,1019.94
2023-04-09T02:25:47.004Z,1019.96
2023-04-09T02:26:49.250Z,1019.91
2023-04-09T02:27:50.638Z,1019.94
2023-04-09T02:28:53.146Z,1019.95
2023-04-09T02:29:55.531Z,1019.95
2023-04-09T02:30:57.780Z,1019.94
2023-04-09T02:31:59.961Z,1019.93
2023-04-09T02:33:01.374Z,1019.98
2023-04-09T02:34:02.798Z,1020.04
2023-04-09T02:35:04.194Z,1019.99
2023-04-09T02:36:06.499Z,1020.04
2023-04-09T02:37:08.731Z,1020.03
2023-04-09T02:38:11.025Z,1020.10
2023-04-09T02:39:13.229Z,1020.12
2023-04-09T02:40:15.435Z,1020.04
2023-04-09T02:41:17.687Z,1020.07
2023-04-09T02:42:19.884Z,1020.19
2023-04-09T02:43:21.284Z,1020.14
2023-04-09T02:44:22.761Z,1020.06
2023-04-09T02:45:24.184Z,1020.05
2023-04-09T02:46:25.619Z,1020.05
2023-04-09T02:47:27.104Z,1020.08
2023-04-09T02:48:28.519Z,1020.11
2023-04-09T02:49:30.777Z,1020.10
2023-04-09T02:50:33.023Z,1020.18
2023-04-09T02:51:35.273Z,1020.17
2023-04-09T02:52:36.671Z,1020.15
2023-04-09T02:53:38.925Z,1020.16
2023-04-09T02:54:40.484Z,1020.13
2023-04-09T02:55:42.680Z,1020.06
2023-04-09T02:56:44.082Z,1020.06
2023-04-09T02:57:45.476Z,1020.11
2023-04-09T02:58:46.879Z,1020.11
2023-04-09T02:59:49.084Z,1020.06
2023-04-09T03:00:50.532Z,1020.17
2023-04-09T03:01:52.866Z,1020.11
2023-04-09T03:02:55.409Z,1020.16
2023-04-09T03:03:57.787Z,1020.16
2023-04-09T03:04:59.235Z,1020.13
2023-04-09T03:06:01.488Z,1020.11
2023-04-09T03:07:02.896Z,1019.98
2023-04-09T03:08:04.277Z,1020.07
2023-04-09T03:09:06.558Z,1020.11
2023-04-09T03:10:08.018Z,1020.03
2023-04-09T03:11:10.269Z,1019.97
2023-04-09T03:12:11.662Z,1020.07
2023-04-09T03:13:13.868Z,1020.11
2023-04-09T03:14:15.263Z,1020.11
2023-04-09T03:15:16.657Z,1020.08
2023-04-09T03:16:18.136Z,1020.09
2023-04-09T03:17:20.320Z,1020.10
2023-04-09T03:18:22.573Z,1020.12
2023-04-09T03:19:23.977Z,1020.03
2023-04-09T03:20:26.298Z,1020.09
2023-04-09T03:21:28.557Z,1020.03
2023-04-09T03:22:30.761Z,1020.02
2023-04-09T03:23:32.965Z,1020.06
2023-04-09T03:24:35.214Z,1020.06
2023-04-09T03:25:36.691Z,1020.10
2023-04-09T03:26:38.949Z,1020.13
2023-04-09T03:27:40.355Z,1020.14
2023-04-09T03:28:41.755Z,1020.07
2023-04-09T03:29:43.149Z,1020.03
2023-04-09T03:30:44.568Z,1019.96
2023-04-09T03:31:46.820Z,1019.94
2023-04-09T03:32:48.253Z,1019.96
2023-04-09T03:33:49.652Z,1019.93
2023-04-09T03:34:51.052Z,1019.90
2023-04-09T03:35:53.329Z,1019.84
2023-04-09T03:36:54.766Z,1019.96
2023-04-09T03:37:56.183Z,1019.94
2023-04-09T03:38:57.578Z,1020.02
2023-04-09T03:39:58.977Z,1020.01
2023-04-09T03:41:01.180Z,1020.02
2023-04-09T03:42:02.654Z,1020.02
2023-04-09T03:43:04.882Z,1020.07
2023-04-09T03:44:06.282Z,1020.03
2023-04-09T03:45:08.538Z,1020.17
2023-04-09T03:46:09.953Z,1020.13
2023-04-09T03:47:12.161Z,1020.12
2023-04-09T03:48:14.413Z,1020.12
2023-04-09T03:49:16.610Z,1020.15
2023-04-09T03:50:18.865Z,1020.14
2023-04-09T03:51:20.268Z,1020.23
2023-04-09T03:52:21.713Z,1020.18
2023-04-09T03:53:24.008Z,1020.27
2023-04-09T03:54:25.390Z,1020.36
2023-04-09T03:55:26.784Z,1020.33
2023-04-09T03:56:29.082Z,1020.34
2023-04-09T03:57:30.493Z,1020.41
2023-04-09T03:58:31.893Z,1020.38
2023-04-09T03:59:34.146Z,1020.47
2023-04-09T04:00:35.550Z,1020.43
2023-04-09T04:01:37.867Z,1020.44
2023-04-09T04:02:40.368Z,1020.29
2023-04-09T04:03:42.993Z,1020.31
2023-04-09T04:04:44.725Z,1020.21
2023-04-09T04:05:47.027Z,1020.22
2023-04-09T04:06:49.357Z,1020.19
2023-04-09T04:07:50.757Z,1020.14
2023-04-09T04:08:53.105Z,1020.11
2023-04-09T04:09:54.597Z,1020.20
2023-04-09T04:10:56.055Z,1020.24
2023-04-09T04:11:58.356Z,1020.26
2023-04-09T04:13:00.626Z,1020.24
2023-04-09T04:14:02.846Z,1020.24
2023-04-09T04:15:05.054Z,1020.22
2023-04-09T04:16:07.417Z,1020.24
2023-04-09T04:17:09.606Z,1020.16
2023-04-09T04:18:11.001Z,1020.24
2023-04-09T04:19:12.397Z,1020.29
2023-04-09T04:20:13.793Z,1020.30
2023-04-09T04:21:16.110Z,1020.27
2023-04-09T04:22:17.498Z,1020.30
2023-04-09T04:23:18.900Z,1020.33
2023-04-09T04:24:20.291Z,1020.25
2023-04-09T04:25:22.503Z,1020.32
2023-04-09T04:26:23.896Z,1020.40
2023-04-09T04:27:25.302Z,1020.43
2023-04-09T04:28:27.497Z,1020.40
2023-04-09T04:29:29.761Z,1020.48
2023-04-09T04:30:31.154Z,1020.51
2023-04-09T04:31:32.668Z,1020.51
2023-04-09T04:32:34.070Z,1020.52
2023-04-09T04:34:51.703Z,1020.63
2023-04-09T04:35:53.107Z,1020.61
2023-04-09T04:36:55.416Z,1020.64
2023-04-09T04:37:57.615Z,1020.67
2023-04-09T04:38:59.095Z,1020.69
2023-04-09T04:40:00.473Z,1020.72
2023-04-09T04:41:02.678Z,1020.73
2023-04-09T04:42:04.072Z,1020.83
2023-04-09T04:43:05.468Z,1020.82
2023-04-09T04:44:06.883Z,1020.91
2023-04-09T04:45:08.277Z,1020.87
2023-04-09T04:46:09.721Z,1020.88
2023-04-09T04:47:11.932Z,1020.88
2023-04-09T04:48:13.334Z,1020.96
2023-04-09T04:49:14.721Z,1021.00
2023-04-09T04:50:16.127Z,1020.98
2023-04-09T04:51:17.514Z,1020.98
2023-04-09T04:52:19.767Z,1021.02
2023-04-09T04:53:22.067Z,1020.98
2023-04-09T04:54:23.464Z,1020.99
2023-04-09T04:55:24.863Z,1021.05
2023-04-09T04:56:27.057Z,1021.04
2023-04-09T04:57:29.366Z,1021.00
2023-04-09T04:58:31.561Z,1021.02
2023-04-09T04:59:33.019Z,1020.98
2023-04-09T05:00:35.219Z,1020.98
2023-04-09T05:01:37.526Z,1021.03
2023-04-09T05:02:39.278Z,1020.97
2023-04-09T05:03:40.838Z,1021.02
2023-04-09T05:04:42.248Z,1021.05
2023-04-09T05:05:43.646Z,1020.97
2023-04-09T05:06:45.037Z,1020.93
2023-04-09T05:07:47.291Z,1020.96
2023-04-09T05:08:48.693Z,1020.98
2023-04-09T05:09:50.943Z,1021.02
2023-04-09T05:10:52.336Z,1021.05
2023-04-09T05:11:53.780Z,1021.07
2023-04-09T05:12:56.038Z,1021.00
2023-04-09T05:13:58.285Z,1020.95
2023-04-09T05:14:59.746Z,1020.95
2023-04-09T05:16:02.049Z,1020.95
2023-04-09T05:17:03.525Z,1020.95
2023-04-09T05:18:05.713Z,1021.04
2023-04-09T05:19:07.963Z,1021.05
2023-04-09T05:20:09.369Z,1021.02
2023-04-09T05:21:10.833Z,1021.10
2023-04-09T05:22:12.234Z,1021.12
2023-04-09T05:23:13.628Z,1021.12
2023-04-09T05:24:15.032Z,1021.14
2023-04-09T05:25:16.555Z,1021.13
2023-04-09T05:26:18.842Z,1021.12
2023-04-09T05:27:21.140Z,1021.11
2023-04-09T05:28:23.395Z,1021.07
2023-04-09T05:29:25.591Z,1021.03
2023-04-09T05:30:27.917Z,1020.99
2023-04-09T05:31:29.348Z,1021.07
2023-04-09T05:32:31.653Z,1021.09
2023-04-09T05:33:34.013Z,1021.11
2023-04-09T05:34:35.383Z,1021.06
2023-04-09T05:35:37.791Z,1021.09
2023-04-09T05:36:40.009Z,1021.07
2023-04-09T05:37:42.204Z,1021.09
2023-04-09T05:38:44.451Z,1021.04
2023-04-09T05:39:45.853Z,1021.08
2023-04-09T05:40:47.329Z,1021.07
2023-04-09T05:41:48.731Z,1021.10
2023-04-09T05:42:51.008Z,1021.11
2023-04-09T05:43:52.566Z,1021.07
2023-04-09T05:44:55.104Z,1021.05
2023-04-09T05:45:56.541Z,1021.15
2023-04-09T05:46:58.020Z,1021.20
2023-04-09T05:48:00.339Z,1021.16
2023-04-09T05:49:02.563Z,1021.18
2023-04-09T05:50:04.754Z,1021.10
2023-04-09T05:51:06.178Z,1021.09
2023-04-09T05:52:07.565Z,1021.09
2023-04-09T05:53:08.971Z,1021.15
2023-04-09T05:54:11.179Z,1021.20
2023-04-09T05:55:13.477Z,1021.24
2023-04-09T05:56:14.876Z,1021.21
2023-04-09T05:57:17.160Z,1021.23
2023-04-09T05:58:18.547Z,1021.09
2023-04-09T05:59:20.750Z,1021.14
2023-04-09T06:00:23.045Z,1021.19
2023-04-09T06:01:25.252Z,1021.18
2023-04-09T06:02:27.536Z,1021.15
2023-04-09T06:03:29.841Z,1021.30
2023-04-09T06:04:31.454Z,1021.22
2023-04-09T06:05:33.650Z,1021.24
2023-04-09T06:06:35.903Z,1021.25
2023-04-09T06:07:38.106Z,1021.25
2023-04-09T06:08:40.312Z,1021.26
2023-04-09T06:09:41.705Z,1021.24
2023-04-09T06:10:43.118Z,1021.29
2023-04-09T06:11:45.343Z,1021.30
2023-04-09T06:12:46.738Z,1021.30
2023-04-09T06:13:48.935Z,1021.30
2023-04-09T06:14:50.393Z,1021.43
2023-04-09T06:15:52.619Z,1021.32
2023-04-09T06:16:54.851Z,1021.29
2023-04-09T06:17:58.891Z,1021.29
2023-04-09T06:18:58.578Z,1021.34
2023-04-09T06:20:00.836Z,1021.34
2023-04-09T06:21:02.246Z,1021.41
2023-04-09T06:22:04.489Z,1021.34
2023-04-09T06:23:05.961Z,1021.40
2023-04-09T06:24:08.142Z,1021.38
2023-04-09T06:25:09.540Z,1021.41
2023-04-09T06:26:10.957Z,1021.40
2023-04-09T06:27:13.215Z,1021.48
2023-04-09T06:28:14.595Z,1021.38
2023-04-09T06:29:16.805Z,1021.50
2023-04-09T06:30:19.075Z,1021.44
2023-04-09T06:31:21.395Z,1021.53
2023-04-09T06:32:22.902Z,1021.62
2023-04-09T06:33:25.213Z,1021.59
2023-04-09T06:34:26.658Z,1021.60
2023-04-09T06:35:28.902Z,1021.64
2023-04-09T06:36:30.318Z,1021.68
2023-04-09T06:37:31.708Z,1021.72
2023-04-09T06:38:33.912Z,1021.73
2023-04-09T06:39:35.388Z,1021.81
2023-04-09T06:40:37.643Z,1021.79
2023-04-09T06:41:39.896Z,1021.75
2023-04-09T06:42:41.347Z,1021.79
2023-04-09T06:43:43.542Z,1021.85
2023-04-09T06:44:44.938Z,1021.82
2023-04-09T06:45:47.183Z,1021.84
2023-04-09T06:46:48.649Z,1021.93
2023-04-09T06:47:50.971Z,1021.92
2023-04-09T06:48:53.171Z,1021.96
2023-04-09T06:49:54.568Z,1021.88
2023-04-09T06:50:55.963Z,1021.90
2023-04-09T06:51:58.214Z,1021.99
2023-04-09T06:52:59.612Z,1021.89
2023-04-09T06:54:01.872Z,1021.88
2023-04-09T06:55:03.278Z,1021.97
2023-04-09T06:56:04.685Z,1021.97
2023-04-09T06:57:07.036Z,1021.96
2023-04-09T06:58:08.456Z,1022.03
2023-04-09T06:59:10.702Z,1021.99
2023-04-09T07:00:12.966Z,1021.99
2023-04-09T07:01:15.225Z,1022.05
2023-04-09T07:02:16.742Z,1022.10
2023-04-09T07:03:19.141Z,1022.10
2023-04-09T07:04:20.689Z,1022.10
2023-04-09T07:05:22.122Z,1022.13
2023-04-09T07:06:24.431Z,1022.16
2023-04-09T07:07:25.956Z,1022.07
2023-04-09T07:08:28.140Z,1022.06
2023-04-09T07:09:30.338Z,1022.09
2023-04-09T07:10:31.791Z,1022.10
2023-04-09T07:11:34.079Z,1022.06
2023-04-09T07:12:36.335Z,1022.05
2023-04-09T07:13:38.535Z,1022.10
2023-04-09T07:14:39.939Z,1022.10
2023-04-09T07:15:42.482Z,1022.05
2023-04-09T07:16:44.618Z,1022.00
2023-04-09T07:17:46.050Z,1022.05
2023-04-09T07:18:48.281Z,1022.07
2023-04-09T07:19:49.684Z,1022.00
2023-04-09T07:20:51.088Z,1022.10
2023-04-09T07:21:52.484Z,1022.11
2023-04-09T07:22:53.892Z,1022.07
2023-04-09T07:23:56.222Z,1022.07
2023-04-09T07:24:57.688Z,1022.09
2023-04-09T07:25:59.093Z,1022.07
2023-04-09T07:27:00.566Z,1022.09
2023-04-09T07:28:02.860Z,1022.12
2023-04-09T07:29:04.317Z,1022.14
2023-04-09T07:30:06.587Z,1022.14
2023-04-09T07:31:08.849Z,1022.16
2023-04-09T07:32:10.265Z,1022.14
2023-04-09T07:33:12.514Z,1022.19
2023-04-09T07:34:14.760Z,1022.17
2023-04-09T07:35:16.224Z,1022.14
2023-04-09T07:36:17.648Z,1022.28
2023-04-09T07:37:19.050Z,1022.21
2023-04-09T07:38:21.247Z,1022.24
2023-04-09T07:39:22.642Z,1022.30
2023-04-09T07:40:24.078Z,1022.26
2023-04-09T07:41:26.317Z,1022.21
2023-04-09T07:42:27.814Z,1022.27
2023-04-09T07:43:29.252Z,1022.27
2023-04-09T07:44:31.454Z,1022.26
2023-04-09T07:45:33.650Z,1022.26
2023-04-09T07:46:35.954Z,1022.26
2023-04-09T07:47:38.245Z,1022.23
2023-04-09T07:48:40.455Z,1022.25
2023-04-09T07:49:42.651Z,1022.29
2023-04-09T07:50:44.850Z,1022.25
2023-04-09T07:51:47.048Z,1022.19
2023-04-09T07:52:49.246Z,1022.26
2023-04-09T07:53:50.712Z,1022.24
2023-04-09T07:54:53.016Z,1022.30
2023-04-09T07:55:55.202Z,1022.30
2023-04-09T07:56:57.414Z,1022.32
2023-04-09T07:57:58.853Z,1022.32
2023-04-09T07:59:00.256Z,1022.39
2023-04-09T08:00:01.679Z,1022.34
2023-04-09T08:01:03.067Z,1022.41
2023-04-09T08:02:04.603Z,1022.43
2023-04-09T08:03:07.110Z,1022.43
2023-04-09T08:04:09.529Z,1022.49
2023-04-09T08:05:11.042Z,1022.47
2023-04-09T08:06:13.332Z,1022.48
2023-04-09T08:07:15.575Z,1022.51
2023-04-09T08:08:17.019Z,1022.49
2023-04-09T08:09:18.533Z,1022.54
2023-04-09T08:10:19.933Z,1022.55
2023-04-09T08:11:21.323Z,1022.50
2023-04-09T08:12:22.720Z,1022.58
2023-04-09T08:13:24.965Z,1022.56
2023-04-09T08:14:27.169Z,1022.60
2023-04-09T08:15:29.414Z,1022.58
2023-04-09T08:16:31.697Z,1022.54
2023-04-09T08:17:33.156Z,1022.56
2023-04-09T08:18:35.390Z,1022.53
2023-04-09T08:19:37.103Z,1022.51
2023-04-09T08:20:39.982Z,1022.56
2023-04-09T08:21:42.178Z,1022.56
2023-04-09T08:22:43.624Z,1022.50
2023-04-09T08:23:45.024Z,1022.56
2023-04-09T08:24:46.481Z,1022.56
2023-04-09T08:25:48.736Z,1022.53
2023-04-09T08:26:50.933Z,1022.59
2023-04-09T08:27:52.338Z,1022.56
2023-04-09T08:28:54.824Z,1022.56
2023-04-09T08:29:57.203Z,1022.56
2023-04-09T08:30:58.598Z,1022.57
2023-04-09T08:32:00.044Z,1022.59
2023-04-09T08:33:01.500Z,1022.63
2023-04-09T08:34:02.900Z,1022.64
2023-04-09T08:35:05.186Z,1022.66
2023-04-09T08:36:06.630Z,1022.71
2023-04-09T08:37:08.017Z,1022.67
2023-04-09T08:38:10.266Z,1022.61
2023-04-09T08:39:11.666Z,1022.67
2023-04-09T08:40:13.139Z,1022.59
2023-04-09T08:41:15.102Z,1022.64
2023-04-09T08:42:16.005Z,1022.71
2023-04-09T08:43:17.418Z,1022.67
2023-04-09T08:44:18.833Z,1022.68
2023-04-09T08:45:21.079Z,1022.66
2023-04-09T08:46:23.371Z,1022.69
2023-04-09T08:47:24.857Z,1022.75
2023-04-09T08:48:26.390Z,1022.72
2023-04-09T08:49:27.799Z,1022.79
2023-04-09T08:50:29.197Z,1022.75
2023-04-09T08:51:30.605Z,1022.75
2023-04-09T08:52:32.078Z,1022.79
2023-04-09T08:53:33.474Z,1022.80
2023-04-09T08:54:35.765Z,1022.86
2023-04-09T08:55:38.054Z,1022.80
2023-04-09T08:56:40.259Z,1022.78
2023-04-09T08:57:42.539Z,1022.90
2023-04-09T08:58:43.959Z,1022.87
2023-04-09T08:59:45.406Z,1022.95
2023-04-09T09:00:47.614Z,1022.95
2023-04-09T09:01:49.964Z,1022.95
2023-04-09T09:02:51.428Z,1022.88
2023-04-09T09:03:53.002Z,1022.97
2023-04-09T09:04:55.272Z,1022.96
2023-04-09T09:05:56.668Z,1023.01
2023-04-09T09:06:58.076Z,1022.94
2023-04-09T09:07:59.467Z,1023.07
2023-04-09T09:09:00.865Z,1023.03
2023-04-09T09:10:03.188Z,1022.99
2023-04-09T09:11:04.601Z,1023.07
2023-04-09T09:12:06.874Z,1023.07
2023-04-09T09:13:08.276Z,1023.13
2023-04-09T09:14:10.467Z,1023.05
2023-04-09T09:15:12.733Z,1023.09
2023-04-09T09:16:15.144Z,1023.19
2023-04-09T09:17:16.595Z,1023.10
2023-04-09T09:18:18.802Z,1023.19
2023-04-09T09:19:20.988Z,1023.20
2023-04-09T09:20:22.388Z,1023.21
2023-04-09T09:21:23.794Z,1023.26
2023-04-09T09:22:26.017Z,1023.30
2023-04-09T09:23:28.240Z,1023.30
2023-04-09T09:24:29.644Z,1023.26
2023-04-09T09:25:31.902Z,1023.23
2023-04-09T09:26:34.089Z,1023.22
2023-04-09T09:27:36.296Z,1023.27
2023-04-09T09:28:37.740Z,1023.26
2023-04-09T09:29:39.146Z,1023.33
2023-04-09T09:30:41.469Z,1023.28
2023-04-09T09:31:43.732Z,1023.37
2023-04-09T09:32:46.029Z,1023.26
2023-04-09T09:33:48.309Z,1023.39
2023-04-09T09:34:49.763Z,1023.32
2023-04-09T09:35:51.229Z,1023.44
2023-04-09T09:36:52.621Z,1023.41
2023-04-09T09:37:54.210Z,1023.53
2023-04-09T09:38:56.456Z,1023.46
2023-04-09T09:39:58.710Z,1023.51
2023-04-09T09:41:00.909Z,1023.52
2023-04-09T09:42:02.307Z,1023.51
2023-04-09T09:43:03.702Z,1023.56
2023-04-09T09:44:05.959Z,1023.56
2023-04-09T09:45:08.156Z,1023.60
2023-04-09T09:46:09.593Z,1023.50
2023-04-09T09:47:10.988Z,1023.48
2023-04-09T09:48:12.394Z,1023.49
2023-04-09T09:49:13.790Z,1023.50
2023-04-09T09:50:15.251Z,1023.58
2023-04-09T09:51:17.447Z,1023.52
2023-04-09T09:52:19.696Z,1023.52
2023-04-09T09:53:22.008Z,1023.58
2023-04-09T09:54:23.457Z,1023.64
2023-04-09T09:55:25.658Z,1023.65
2023-04-09T09:56:27.077Z,1023.60
2023-04-09T09:57:28.518Z,1023.53
2023-04-09T09:58:30.772Z,1023.57
2023-04-09T09:59:32.236Z,1023.60
2023-04-09T10:00:33.636Z,1023.56
2023-04-09T10:01:36.024Z,1023.64
2023-04-09T10:02:38.315Z,1023.63
2023-04-09T10:03:39.797Z,1023.61
2023-04-09T10:04:41.213Z,1023.59
2023-04-09T10:05:42.633Z,1023.65
2023-04-09T10:06:44.887Z,1023.71
2023-04-09T10:07:47.135Z,1023.70
2023-04-09T10:08:49.517Z,1023.65
2023-04-09T10:09:51.005Z,1023.68
2023-04-09T10:10:52.414Z,1023.68
2023-04-09T10:11:54.725Z,1023.72
2023-04-09T10:12:56.921Z,1023.73
2023-04-09T10:13:59.184Z,1023.82
2023-04-09T10:15:01.443Z,1023.86
2023-04-09T10:16:03.020Z,1023.81
2023-04-09T10:17:04.358Z,1023.75
2023-04-09T10:18:06.575Z,1023.82
2023-04-09T10:19:08.818Z,1023.82
2023-04-09T10:20:11.081Z,1023.80
2023-04-09T10:21:12.464Z,1023.82
2023-04-09T10:22:14.010Z,1023.77
2023-04-09T10:23:15.419Z,1023.73
2023-04-09T10:24:16.819Z,1023.77
2023-04-09T10:25:18.212Z,1023.77
2023-04-09T10:26:19.668Z,1023.77
2023-04-09T10:27:21.137Z,1023.80
2023-04-09T10:28:23.345Z,1023.81
2023-04-09T10:29:26.122Z,1023.82
2023-04-09T10:30:27.504Z,1023.82
2023-04-09T10:31:29.783Z,1023.85
2023-04-09T10:32:31.227Z,1023.82
2023-04-09T10:33:33.513Z,1023.91
2023-04-09T10:34:35.769Z,1023.85
2023-04-09T10:35:38.002Z,1023.81
2023-04-09T10:36:40.253Z,1023.84
2023-04-09T10:37:42.450Z,1023.85
2023-04-09T10:38:43.905Z,1023.80
2023-04-09T10:39:46.103Z,1023.85
2023-04-09T10:40:48.352Z,1023.87
2023-04-09T10:41:50.553Z,1023.85
2023-04-09T10:42:52.762Z,1023.87
2023-04-09T10:43:54.152Z,1023.96
2023-04-09T10:44:56.410Z,1023.92
2023-04-09T10:45:57.817Z,1024.05
2023-04-09T10:47:00.107Z,1024.13
2023-04-09T10:48:02.416Z,1024.07
2023-04-09T10:49:04.651Z,1024.10
2023-04-09T10:50:06.057Z,1024.12
2023-04-09T10:51:08.253Z,1024.16
2023-04-09T10:52:11.557Z,1024.08
2023-04-09T10:53:11.133Z,1024.09
2023-04-09T10:54:13.329Z,1024.11
2023-04-09T10:55:15.529Z,1024.11
2023-04-09T10:56:16.922Z,1024.21
2023-04-09T10:57:18.377Z,1024.21
2023-04-09T10:58:20.610Z,1024.21
2023-04-09T10:59:22.000Z,1024.19
2023-04-09T11:00:23.398Z,1024.18
2023-04-09T11:01:24.870Z,1024.26
2023-04-09T11:02:27.251Z,1024.23
2023-04-09T11:03:29.676Z,1024.25
2023-04-09T11:04:31.990Z,1024.26
2023-04-09T11:05:34.174Z,1024.23
2023-04-09T11:06:35.573Z,1024.21
2023-04-09T11:07:36.984Z,1024.22
2023-04-09T11:08:38.436Z,1024.12
2023-04-09T11:09:39.829Z,1024.21
2023-04-09T11:10:42.125Z,1024.23
2023-04-09T11:11:43.539Z,1024.19
2023-04-09T11:12:45.788Z,1024.16
2023-04-09T11:13:47.993Z,1024.18
2023-04-09T11:14:50.272Z,1024.22
2023-04-09T11:15:52.550Z,1024.17
2023-04-09T11:16:53.940Z,1024.14
2023-04-09T11:17:56.289Z,1024.15
2023-04-09T11:18:58.586Z,1024.24
2023-04-09T11:20:00.796Z,1024.21
2023-04-09T11:21:03.037Z,1024.22
2023-04-09T11:22:05.357Z,1024.22
2023-04-09T11:23:07.562Z,1024.19
2023-04-09T11:24:08.958Z,1024.29
2023-04-09T11:25:10.413Z,1024.25
2023-04-09T11:26:12.659Z,1024.26
2023-04-09T11:27:14.915Z,1024.37
2023-04-09T11:28:16.317Z,1024.29
2023-04-09T11:29:18.570Z,1024.29
2023-04-09T11:30:20.798Z,1024.33
2023-04-09T11:31:22.265Z,1024.27
2023-04-09T11:32:23.733Z,1024.27
2023-04-09T11:33:25.974Z,1024.25
2023-04-09T11:34:28.221Z,1024.27
2023-04-09T11:35:29.640Z,1024.22
2023-04-09T11:36:31.831Z,1024.24
2023-04-09T11:37:34.076Z,1024.29
2023-04-09T11:38:36.294Z,1024.25
2023-04-09T11:39:38.547Z,1024.28
2023-04-09T11:40:40.798Z,1024.17
2023-04-09T11:41:43.011Z,1024.27
2023-04-09T11:42:44.458Z,1024.17
2023-04-09T11:43:45.856Z,1024.15
2023-04-09T11:44:48.050Z,1024.21
2023-04-09T11:45:49.459Z,1024.16
2023-04-09T11:46:51.696Z,1024.18
2023-04-09T11:47:53.968Z,1024.18
2023-04-09T11:48:55.395Z,1024.18
2023-04-09T11:49:56.798Z,1024.17
2023-04-09T11:50:58.990Z,1024.20
2023-04-09T11:52:01.205Z,1024.20
2023-04-09T11:53:03.404Z,1024.06
2023-04-09T11:54:05.683Z,1024.11
2023-04-09T11:55:07.066Z,1024.09
2023-04-09T11:56:09.274Z,1024.17
2023-04-09T11:57:10.679Z,1024.03
2023-04-09T11:58:12.870Z,1024.06
2023-04-09T11:59:15.076Z,1024.10
2023-04-09T12:00:17.342Z,1024.13
2023-04-09T12:01:19.559Z,1024.09
2023-04-09T12:02:21.895Z,1024.14
2023-04-09T12:03:24.259Z,1024.11
2023-04-09T12:04:26.716Z,1024.11
2023-04-09T12:05:29.011Z,1024.08
2023-04-09T12:06:31.224Z,1024.08
2023-04-09T12:07:32.679Z,1024.10
2023-04-09T12:08:34.085Z,1024.08
2023-04-09T12:09:35.477Z,1024.03
2023-04-09T12:10:36.892Z,1024.12
2023-04-09T12:11:38.285Z,1024.06
2023-04-09T12:12:40.535Z,1024.03
2023-04-09T12:13:42.741Z,1024.03
2023-04-09T12:14:45.050Z,1024.06
2023-04-09T12:15:47.257Z,1024.04
2023-04-09T12:16:48.668Z,1024.04
2023-04-09T12:17:50.150Z,1023.98
2023-04-09T12:18:52.598Z,1024.08
2023-04-09T12:19:54.968Z,1024.07
2023-04-09T12:20:56.374Z,1024.05
2023-04-09T12:21:58.599Z,1024.01
2023-04-09T12:22:59.996Z,1024.07
2023-04-09T12:24:02.312Z,1024.03
2023-04-09T12:25:04.596Z,1024.02
2023-04-09T12:26:05.976Z,1023.99
2023-04-09T12:27:08.242Z,1024.01
2023-04-09T12:28:09.636Z,1023.97
2023-04-09T12:29:11.841Z,1024.05